Time;durP1;ratioP1;P1;durP2;ratioP2;P2;SDS_P1;SDS_P2;PMS_P1;PMS_P2;Temp;Humidity;BMP_temperature;BMP_pressure;BME280_temperature;BME280_humidity;BME280_pressure;Samples;Min_cycle;Max_cycle;Signal;HPM_P1;HPM_P2
2021/05/06 00:32:18;;;;;;;25.30;12.25;;;4.00;99.90;;;;;;5103115;28;20123;-53
2021/05/06 00:34:43;;;;;;;26.52;13.38;;;3.90;99.90;;;;;;5107105;28;20095;-51
2021/05/06 00:37:10;;;;;;;23.35;12.75;;;3.90;99.90;;;;;;5109197;28;20555;-56
2021/05/06 00:39:40;;;;;;;21.67;11.95;;;3.80;99.90;;;;;;5106574;28;20099;-53
2021/05/06 00:42:17;;;;;;;27.15;13.82;;;3.80;99.90;;;;;;5107245;28;20073;-55
2021/05/06 00:45:18;;;;;;;24.40;13.98;;;3.80;99.90;;;;;;5106536;28;20113;-52
2021/05/06 00:56:16;;;;;;;30.40;15.05;;;3.70;99.90;;;;;;5103503;28;20043;-53
2021/05/06 00:59:02;;;;;;;20.08;14.18;;;3.60;99.90;;;;;;5106039;28;20034;-53
2021/05/06 01:04:22;;;;;;;;;;;3.60;99.90;;;;;;5103215;28;20031;-54
2021/05/06 01:09:51;;;;;;;24.35;13.07;;;3.60;99.90;;;;;;5110342;28;20042;-54
2021/05/06 01:12:17;;;;;;;22.70;12.77;;;3.60;99.90;;;;;;5103963;28;20034;-51
2021/05/06 01:14:43;;;;;;;25.17;12.48;;;3.60;99.90;;;;;;5104158;27;20061;-53
2021/05/06 01:17:08;;;;;;;21.05;12.57;;;3.60;99.90;;;;;;5111304;28;20036;-55
2021/05/06 01:19:34;;;;;;;27.05;12.60;;;3.60;99.90;;;;;;5107768;28;20043;-54
2021/05/06 01:21:59;;;;;;;15.30;10.50;;;3.50;99.90;;;;;;5109467;27;20122;-54
2021/05/06 01:24:26;;;;;;;21.33;11.18;;;3.50;99.90;;;;;;5108383;28;20020;-54
2021/05/06 01:27:06;;;;;;;17.30;10.93;;;3.50;99.90;;;;;;5110347;28;20057;-51
2021/05/06 01:29:37;;;;;;;20.67;10.52;;;3.50;99.90;;;;;;5106921;27;20505;-54
2021/05/06 01:34:36;;;;;;;15.55;7.63;;;3.60;99.90;;;;;;5109855;28;20231;-52
2021/05/06 01:42:20;;;;;;;12.48;7.60;;;3.80;99.90;;;;;;5111253;28;20107;-53
2021/05/06 02:00:29;;;;;;;13.25;4.82;;;4.20;99.90;;;;;;5108852;27;19916;-52
2021/05/06 02:02:55;;;;;;;7.50;4.68;;;4.20;99.90;;;;;;5107073;27;20032;-55
2021/05/06 02:05:21;;;;;;;6.32;3.58;;;4.30;99.90;;;;;;5110315;28;20024;-51
2021/05/06 02:07:47;;;;;;;10.85;4.40;;;4.30;99.90;;;;;;5105898;28;20082;-51
2021/05/06 02:10:19;;;;;;;7.53;4.03;;;4.40;99.90;;;;;;5109374;28;20316;-52
2021/05/06 02:12:45;;;;;;;9.60;3.97;;;4.40;99.90;;;;;;5103745;27;20019;-51
2021/05/06 02:15:29;;;;;;;8.23;3.72;;;4.40;99.90;;;;;;5103692;28;20573;-52
2021/05/06 02:17:56;;;;;;;13.57;3.90;;;4.40;99.90;;;;;;5104854;28;20053;-51
2021/05/06 02:20:22;;;;;;;8.48;4.68;;;4.40;99.90;;;;;;5100919;28;20512;-55
2021/05/06 02:22:50;;;;;;;6.47;3.90;;;4.40;99.90;;;;;;5108162;28;20190;-51
2021/05/06 02:25:15;;;;;;;6.35;3.50;;;4.50;99.90;;;;;;5110414;28;20102;-52
2021/05/06 02:27:41;;;;;;;7.32;3.60;;;4.40;99.90;;;;;;5111555;28;20553;-53
2021/05/06 02:30:07;;;;;;;7.88;3.50;;;4.40;99.90;;;;;;5104938;28;20077;-51
2021/05/06 02:32:33;;;;;;;8.55;3.65;;;4.50;99.90;;;;;;5100023;28;20066;-54
2021/05/06 02:34:59;;;;;;;6.78;3.20;;;4.50;99.90;;;;;;5103389;28;20424;-53
2021/05/06 02:37:26;;;;;;;7.70;3.85;;;4.50;99.90;;;;;;5101330;27;20426;-52
2021/05/06 02:39:52;;;;;;;8.88;3.97;;;4.70;99.90;;;;;;5106628;28;20120;-52
2021/05/06 02:42:17;;;;;;;10.00;2.97;;;4.70;99.90;;;;;;5100311;28;20024;-52
2021/05/06 02:44:43;;;;;;;8.90;3.10;;;4.70;99.90;;;;;;5102600;28;20031;-51
2021/05/06 02:47:09;;;;;;;8.65;3.90;;;4.80;99.90;;;;;;5109306;28;20023;-52
2021/05/06 02:49:36;;;;;;;6.22;3.33;;;4.80;99.90;;;;;;5101171;28;21059;-52
2021/05/06 02:52:07;;;;;;;7.28;3.05;;;4.90;99.90;;;;;;5102815;27;20032;-52
2021/05/06 02:54:38;;;;;;;4.57;2.53;;;4.90;99.90;;;;;;5097431;28;20081;-51
2021/05/06 02:57:19;;;;;;;8.00;2.67;;;4.90;99.90;;;;;;5100233;28;20509;-51
2021/05/06 03:02:49;;;;;;;5.68;2.53;;;5.00;99.90;;;;;;5100030;28;20497;-50
2021/05/06 03:05:15;;;;;;;4.50;2.38;;;5.00;99.90;;;;;;5105316;28;20051;-51
2021/05/06 03:07:45;;;;;;;5.00;2.63;;;5.10;99.90;;;;;;5100490;27;20028;-52
2021/05/06 03:13:08;;;;;;;6.32;2.65;;;5.30;99.90;;;;;;5110216;28;20063;-52
2021/05/06 03:23:47;;;;;;;8.15;2.80;;;5.30;99.90;;;;;;5102874;28;20164;-53
2021/05/06 03:26:14;;;;;;;7.13;2.20;;;5.30;99.90;;;;;;5105818;28;20615;-55
2021/05/06 03:28:44;;;;;;;7.82;3.10;;;5.30;99.90;;;;;;5102244;28;20039;-51
2021/05/06 03:31:33;;;;;;;4.57;2.45;;;5.20;99.90;;;;;;5108206;28;20051;-51
2021/05/06 03:42:16;;;;;;;7.75;3.08;;;5.20;99.90;;;;;;5102621;28;20062;-52
2021/05/06 03:44:58;;;;;;;12.18;2.88;;;5.20;99.90;;;;;;5106632;27;20401;-51
2021/05/06 04:15:09;;;;;;;10.05;3.78;;;5.50;99.90;;;;;;5095391;22;20052;-55
2021/05/06 04:17:43;;;;;;;10.07;4.13;;;5.60;99.90;;;;;;5061382;28;20025;-54
2021/05/06 04:25:38;;;;;;;8.43;4.15;;;5.70;99.90;;;;;;5068394;28;19904;-54
2021/05/06 04:31:23;;;;;;;16.88;5.22;;;5.90;99.90;;;;;;5002866;28;20114;-57
2021/05/06 04:36:56;;;;;;;6.07;3.88;;;6.10;99.90;;;;;;5031111;28;20506;-52
2021/05/06 04:39:39;;;;;;;15.88;4.10;;;6.10;99.90;;;;;;5045381;28;20108;-54
2021/05/06 04:42:34;;;;;;;12.00;4.60;;;6.20;99.90;;;;;;5055450;28;20658;-54
2021/05/06 04:53:32;;;;;;;10.95;3.58;;;6.40;99.90;;;;;;5071157;28;20047;-55
2021/05/06 05:04:34;;;;;;;6.47;2.67;;;6.60;99.90;;;;;;5071249;28;20114;-52
2021/05/06 05:24:56;;;;;;;11.98;2.30;;;6.90;99.90;;;;;;5071679;28;20505;-57
2021/05/06 05:27:23;;;;;;;6.55;2.63;;;7.00;99.90;;;;;;5065859;28;20040;-56
2021/05/06 05:29:50;;;;;;;5.53;2.33;;;7.00;99.90;;;;;;5068459;28;20038;-56
2021/05/06 05:32:16;;;;;;;11.20;2.97;;;7.10;99.90;;;;;;5072596;28;20446;-55
2021/05/06 05:34:45;;;;;;;9.57;3.15;;;7.10;99.90;;;;;;5072266;28;20035;-57
2021/05/06 05:37:17;;;;;;;7.95;2.88;;;7.10;99.90;;;;;;5071789;28;20060;-57
2021/05/06 05:49:12;;;;;;;9.63;3.35;;;7.20;99.90;;;;;;5071399;28;20078;-55
2021/05/06 05:56:23;;;;;;;;;;;7.40;99.90;;;;;;5061509;28;20032;-55
2021/05/06 05:58:50;;;;;;;8.23;4.22;;;7.40;99.90;;;;;;5060779;28;19912;-54
2021/05/06 06:01:16;;;;;;;12.60;4.50;;;7.40;99.90;;;;;;5065557;28;20028;-54
2021/05/06 06:03:42;;;;;;;12.50;4.40;;;7.50;99.90;;;;;;5068245;28;20021;-57
2021/05/06 06:06:07;;;;;;;11.45;4.72;;;7.50;99.90;;;;;;5068885;28;20033;-53
2021/05/06 06:08:36;;;;;;;15.43;4.93;;;7.50;99.90;;;;;;5064962;28;20069;-53
2021/05/06 06:11:02;;;;;;;11.40;4.20;;;7.50;99.90;;;;;;5063500;28;20027;-54
2021/05/06 06:13:27;;;;;;;13.02;4.63;;;7.50;99.90;;;;;;5068508;28;20029;-52
2021/05/06 06:18:35;;;;;;;9.52;4.85;;;7.60;99.90;;;;;;5088387;28;20016;-54
2021/05/06 06:23:41;;;;;;;13.02;4.90;;;7.70;99.90;;;;;;5087146;28;20530;-52
2021/05/06 06:26:07;;;;;;;10.10;5.22;;;7.70;99.90;;;;;;5082390;28;20054;-53
2021/05/06 06:28:39;;;;;;;9.05;4.70;;;7.80;99.90;;;;;;5087871;28;20034;-53
2021/05/06 06:31:11;;;;;;;5.78;4.15;;;7.80;99.90;;;;;;5081107;28;20520;-52
2021/05/06 06:33:37;;;;;;;9.18;4.90;;;7.90;99.90;;;;;;5070524;28;20043;-53
2021/05/06 06:36:02;;;;;;;9.75;5.30;;;8.00;99.90;;;;;;5076948;28;20032;-54
2021/05/06 06:38:28;;;;;;;10.85;4.50;;;8.00;99.90;;;;;;5083480;28;20028;-54
2021/05/06 06:40:54;;;;;;;6.90;4.78;;;8.00;99.90;;;;;;5089985;28;20062;-52
2021/05/06 06:43:19;;;;;;;9.13;4.15;;;8.00;99.90;;;;;;5087545;28;20468;-52
2021/05/06 06:45:45;;;;;;;9.18;5.25;;;8.10;99.90;;;;;;5089561;28;20025;-54
2021/05/06 06:48:12;;;;;;;8.77;4.55;;;8.10;99.90;;;;;;5084874;28;20055;-54
2021/05/06 06:50:38;;;;;;;10.27;4.30;;;8.10;99.90;;;;;;5085911;28;20028;-53
2021/05/06 06:53:04;;;;;;;6.78;3.50;;;8.20;99.90;;;;;;5089568;28;20551;-54
2021/05/06 06:55:29;;;;;;;10.45;3.83;;;8.30;99.90;;;;;;5086536;28;20035;-52
2021/05/06 06:58:13;;;;;;;11.05;4.15;;;8.30;99.90;;;;;;5086453;28;20036;-51
2021/05/06 07:00:45;;;;;;;14.63;4.60;;;8.30;99.90;;;;;;5084950;28;20035;-54
2021/05/06 07:03:11;;;;;;;11.57;4.35;;;8.30;99.90;;;;;;5084550;28;20035;-52
2021/05/06 07:05:38;;;;;;;7.82;4.28;;;8.30;99.90;;;;;;5080836;28;20020;-53
2021/05/06 07:08:15;;;;;;;8.40;3.40;;;8.40;99.90;;;;;;5086026;28;20477;-51
2021/05/06 07:10:43;;;;;;;7.32;3.33;;;8.50;99.90;;;;;;5080977;28;20238;-52
2021/05/06 07:13:09;;;;;;;7.25;3.78;;;8.40;99.90;;;;;;5089636;28;20073;-52
2021/05/06 07:15:34;;;;;;;11.48;3.92;;;8.50;99.90;;;;;;5084738;28;20036;-53
2021/05/06 07:18:00;;;;;;;9.98;3.88;;;8.70;99.90;;;;;;5080074;28;20480;-53
2021/05/06 07:20:26;;;;;;;6.72;3.30;;;8.70;99.90;;;;;;5083979;28;20480;-53
2021/05/06 07:22:52;;;;;;;9.63;3.88;;;8.80;99.90;;;;;;5086563;28;20103;-51
2021/05/06 07:25:18;;;;;;;6.50;2.80;;;8.90;99.90;;;;;;5070701;28;20431;-54
2021/05/06 07:27:43;;;;;;;5.15;2.75;;;8.90;99.90;;;;;;5086630;28;20096;-53
2021/05/06 07:30:09;;;;;;;4.93;2.38;;;9.00;99.90;;;;;;5066423;28;20402;-53
2021/05/06 07:32:36;;;;;;;6.63;2.53;;;9.00;99.90;;;;;;5079025;28;20372;-55
2021/05/06 07:35:02;;;;;;;4.10;2.20;;;9.00;99.90;;;;;;5087339;28;20024;-55
2021/05/06 07:37:28;;;;;;;10.23;2.20;;;9.10;99.90;;;;;;5088097;28;20513;-52
2021/05/06 07:39:54;;;;;;;9.82;2.28;;;9.00;99.90;;;;;;5084152;28;20044;-55
2021/05/06 07:42:19;;;;;;;2.72;1.98;;;9.10;99.90;;;;;;5088273;28;20032;-53
2021/05/06 07:44:45;;;;;;;3.75;2.20;;;9.20;99.90;;;;;;5083070;28;20032;-53
2021/05/06 07:47:11;;;;;;;4.47;2.20;;;9.30;99.90;;;;;;5083380;28;20024;-54
2021/05/06 07:49:39;;;;;;;5.22;2.83;;;9.40;99.90;;;;;;5084439;28;20031;-54
2021/05/06 07:52:07;;;;;;;4.43;1.80;;;9.40;99.90;;;;;;5082708;28;20074;-53
2021/05/06 07:54:32;;;;;;;5.18;2.08;;;9.60;99.90;;;;;;5084420;28;20119;-54
2021/05/06 07:56:58;;;;;;;6.97;2.40;;;9.80;99.90;;;;;;5082841;28;20165;-52
2021/05/06 07:59:25;;;;;;;1.98;1.50;;;9.80;99.90;;;;;;5087920;28;20020;-55
2021/05/06 08:01:51;;;;;;;4.30;2.10;;;9.90;99.90;;;;;;5087346;28;20032;-53
2021/05/06 08:04:20;;;;;;;2.47;1.58;;;9.90;99.90;;;;;;5088420;28;20050;-53
2021/05/06 08:06:46;;;;;;;3.40;1.60;;;9.80;99.90;;;;;;5087255;28;20028;-52
2021/05/06 08:09:11;;;;;;;6.72;2.30;;;9.90;99.90;;;;;;5088253;28;20387;-54
2021/05/06 08:11:37;;;;;;;4.40;1.83;;;10.10;99.90;;;;;;5080950;28;20032;-52
2021/05/06 08:14:02;;;;;;;6.88;2.08;;;10.10;99.90;;;;;;5085026;28;20035;-54
2021/05/06 08:16:28;;;;;;;6.72;1.85;;;10.20;99.90;;;;;;5084039;28;20069;-56
2021/05/06 08:18:54;;;;;;;7.47;1.65;;;10.20;99.90;;;;;;5083669;28;20032;-55
2021/05/06 08:21:19;;;;;;;6.40;1.88;;;10.20;99.90;;;;;;5081268;28;20030;-54
2021/05/06 08:23:45;;;;;;;6.70;1.95;;;10.20;99.90;;;;;;5082636;28;20020;-52
2021/05/06 08:26:11;;;;;;;5.93;2.58;;;10.30;99.90;;;;;;5087803;28;20032;-52
2021/05/06 08:28:37;;;;;;;4.80;2.63;;;10.40;99.90;;;;;;5085508;28;20028;-53
2021/05/06 08:31:02;;;;;;;4.93;2.00;;;10.60;99.90;;;;;;5082121;28;20535;-53
2021/05/06 08:33:28;;;;;;;5.57;2.20;;;10.80;99.90;;;;;;5087118;28;20024;-53
2021/05/06 08:35:53;;;;;;;4.53;1.60;;;10.50;99.90;;;;;;5066540;28;20440;-55
2021/05/06 08:38:19;;;;;;;3.92;1.65;;;10.40;99.90;;;;;;5086044;28;20036;-53
2021/05/06 08:40:46;;;;;;;4.30;1.55;;;10.60;99.90;;;;;;5063709;28;20454;-55
2021/05/06 08:43:12;;;;;;;4.55;1.80;;;10.80;99.90;;;;;;5087220;28;20115;-55
2021/05/06 08:45:47;;;;;;;9.18;1.90;;;10.90;99.90;;;;;;5082012;28;20486;-55
2021/05/06 08:48:16;;;;;;;18.88;7.65;;;11.00;99.90;;;;;;5087865;28;20497;-53
2021/05/06 08:50:43;;;;;;;2.58;1.23;;;11.10;99.90;;;;;;5085738;28;20111;-52
2021/05/06 08:53:10;;;;;;;3.97;1.38;;;11.10;99.90;;;;;;5081851;28;20063;-53
2021/05/06 08:55:36;;;;;;;5.35;1.30;;;11.00;99.90;;;;;;5068403;28;20558;-53
2021/05/06 08:58:01;;;;;;;2.10;1.00;;;11.20;99.90;;;;;;5087096;28;20044;-53
2021/05/06 09:00:27;;;;;;;5.70;2.42;;;11.20;99.90;;;;;;5062512;28;20206;-53
2021/05/06 09:02:53;;;;;;;4.63;1.40;;;11.30;99.90;;;;;;5082975;28;20096;-55
2021/05/06 09:05:22;;;;;;;2.72;1.23;;;11.60;99.90;;;;;;5080763;28;20398;-53
2021/05/06 09:07:47;;;;;;;6.50;1.25;;;11.80;99.90;;;;;;5084225;28;20097;-55
2021/05/06 09:10:39;;;;;;;2.58;1.50;;;11.90;99.90;;;;;;5081780;28;20028;-51
2021/05/06 09:13:26;;;;;;;2.45;1.13;;;12.10;99.90;;;;;;5084180;28;20027;-53
2021/05/06 09:15:51;;;;;;;3.60;0.98;;;11.90;99.90;;;;;;5084997;28;20036;-54
2021/05/06 09:18:36;;;;;;;5.47;1.70;;;11.80;99.90;;;;;;5083464;28;20025;-54
2021/05/06 09:21:04;;;;;;;2.25;1.10;;;12.10;99.90;;;;;;5082172;28;20024;-52
2021/05/06 09:23:29;;;;;;;5.18;1.00;;;12.30;99.90;;;;;;5086236;28;20024;-54
2021/05/06 09:25:59;;;;;;;5.68;1.23;;;12.50;99.90;;;;;;5077500;28;20043;-51
2021/05/06 09:28:26;;;;;;;5.28;2.45;;;12.40;99.90;;;;;;5079608;28;20033;-54
2021/05/06 09:31:04;;;;;;;4.75;1.60;;;12.20;99.90;;;;;;5077940;28;20103;-53
2021/05/06 09:33:40;;;;;;;1.40;0.80;;;12.20;99.90;;;;;;5081587;28;20073;-53
2021/05/06 09:36:11;;;;;;;1.25;1.05;;;12.50;99.90;;;;;;5080530;28;20053;-51
2021/05/06 09:38:49;;;;;;;2.90;1.30;;;13.00;99.90;;;;;;5067901;28;20035;-53
2021/05/06 09:41:20;;;;;;;8.38;1.50;;;13.00;99.90;;;;;;5082487;28;20027;-52
2021/05/06 09:43:48;;;;;;;4.53;1.20;;;13.00;99.90;;;;;;5088159;28;20077;-52
2021/05/06 09:46:30;;;;;;;3.28;1.10;;;13.20;99.90;;;;;;5085989;28;20120;-53
2021/05/06 09:49:01;;;;;;;8.23;1.20;;;12.70;99.90;;;;;;5084828;28;20032;-53
2021/05/06 09:51:45;;;;;;;5.35;1.23;;;12.50;99.90;;;;;;5079687;28;20431;-54
2021/05/06 09:54:19;;;;;;;1.90;1.00;;;13.00;99.90;;;;;;5087548;28;20115;-53
2021/05/06 09:56:45;;;;;;;2.40;1.40;;;13.10;99.90;;;;;;5085130;28;20028;-51
2021/05/06 09:59:20;;;;;;;4.28;1.23;;;13.00;99.90;;;;;;5089040;28;20028;-53
2021/05/06 10:01:46;;;;;;;1.98;0.90;;;12.90;99.90;;;;;;5085528;28;20065;-51
2021/05/06 10:04:19;;;;;;;3.53;0.90;;;12.90;99.90;;;;;;5087390;28;20024;-54
2021/05/06 10:07:21;;;;;;;5.65;1.30;;;13.20;99.90;;;;;;5088689;28;20085;-51
2021/05/06 10:09:50;;;;;;;4.88;1.08;;;13.30;99.90;;;;;;5086764;28;20509;-51
2021/05/06 10:12:16;;;;;;;2.90;1.38;;;13.30;99.90;;;;;;5087745;28;20472;-51
2021/05/06 10:14:42;;;;;;;1.98;1.00;;;13.10;99.90;;;;;;5083805;28;20063;-51
2021/05/06 10:17:08;;;;;;;3.40;0.90;;;13.30;99.90;;;;;;5087422;28;20040;-51
2021/05/06 10:19:34;;;;;;;2.60;0.80;;;13.20;99.90;;;;;;5085715;28;20028;-51
2021/05/06 10:22:00;;;;;;;4.00;1.17;;;13.10;99.90;;;;;;5084736;28;20142;-52
2021/05/06 10:24:29;;;;;;;11.02;2.33;;;13.20;99.90;;;;;;5089537;28;20048;-51
2021/05/06 10:26:55;;;;;;;3.78;1.20;;;13.20;99.90;;;;;;5082458;28;20028;-54
2021/05/06 10:29:21;;;;;;;11.20;1.38;;;12.80;99.90;;;;;;5086520;28;20056;-53
2021/05/06 10:31:48;;;;;;;4.35;1.15;;;12.80;99.90;;;;;;5085328;28;20055;-53
2021/05/06 10:34:13;;;;;;;3.35;0.85;;;12.40;99.90;;;;;;5088413;28;20734;-53
2021/05/06 10:36:40;;;;;;;3.15;0.90;;;12.50;99.90;;;;;;5084004;28;20084;-51
2021/05/06 10:39:13;;;;;;;3.65;0.70;;;12.70;99.90;;;;;;5079991;28;20042;-53
2021/05/06 10:41:39;;;;;;;8.07;1.48;;;13.10;99.90;;;;;;5079946;28;20362;-50
2021/05/06 10:44:07;;;;;;;6.40;1.65;;;13.30;99.90;;;;;;5081033;28;20103;-54
2021/05/06 10:47:02;;;;;;;1.58;0.82;;;13.20;99.90;;;;;;5082708;28;20020;-53
2021/05/06 10:49:48;;;;;;;4.77;1.40;;;13.30;99.90;;;;;;5061972;28;20025;-52
2021/05/06 10:52:16;;;;;;;6.60;1.85;;;13.20;99.90;;;;;;5081505;28;20767;-54
2021/05/06 10:54:53;;;;;;;13.55;5.45;;;13.10;99.40;;;;;;5081013;28;20047;-53
2021/05/06 10:57:19;;;;;;;18.55;1.83;;;13.50;99.90;;;;;;5079879;28;20024;-52
2021/05/06 10:59:47;;;;;;;6.93;1.10;;;13.60;99.90;;;;;;5077979;28;20040;-52
2021/05/06 11:02:38;;;;;;;2.65;1.30;;;13.30;98.90;;;;;;5080070;28;20035;-55
2021/05/06 11:05:13;;;;;;;6.15;1.65;;;13.20;98.80;;;;;;5084941;28;20466;-51
2021/05/06 11:07:38;;;;;;;3.15;1.05;;;13.50;99.30;;;;;;5078840;28;20063;-52
2021/05/06 11:10:05;;;;;;;3.42;1.10;;;13.40;99.50;;;;;;5085214;28;20109;-51
2021/05/06 11:12:32;;;;;;;3.42;1.10;;;13.30;98.50;;;;;;5084420;28;20464;-51
2021/05/06 11:15:01;;;;;;;4.05;1.15;;;13.10;98.30;;;;;;5089387;28;20379;-52
2021/05/06 11:17:40;;;;;;;1.20;0.82;;;13.20;97.60;;;;;;5089458;28;20031;-52
2021/05/06 11:20:12;;;;;;;3.40;0.80;;;13.40;98.50;;;;;;5083609;28;20114;-52
2021/05/06 11:22:47;;;;;;;5.00;1.13;;;13.40;97.20;;;;;;5070487;28;20024;-52
2021/05/06 11:25:38;;;;;;;6.28;1.10;;;13.60;97.20;;;;;;5113603;22;20046;-54
2021/05/06 11:28:04;;;;;;;3.40;1.23;;;13.40;97.60;;;;;;5101152;27;20034;-56
2021/05/06 11:30:34;;;;;;;4.80;1.20;;;13.60;98.20;;;;;;5102635;28;20490;-57
2021/05/06 11:33:19;;;;;;;2.00;0.90;;;13.50;97.90;;;;;;5104675;27;20028;-53
2021/05/06 11:36:20;;;;;;;6.47;1.15;;;13.50;97.80;;;;;;5104906;28;20024;-57
2021/05/06 11:38:53;;;;;;;5.30;1.33;;;13.60;97.50;;;;;;5108428;28;20075;-54
2021/05/06 11:41:37;;;;;;;5.72;1.10;;;13.80;98.10;;;;;;5110251;28;20032;-54
2021/05/06 11:44:07;;;;;;;2.50;1.00;;;13.70;99.90;;;;;;5104129;28;20031;-56
2021/05/06 11:46:41;;;;;;;13.13;1.10;;;13.90;97.90;;;;;;5109679;28;20068;-56
2021/05/06 11:49:13;;;;;;;;;;;13.80;98.20;;;;;;5107674;28;20027;-54
2021/05/06 11:51:44;;;;;;;5.18;1.08;;;13.60;98.00;;;;;;5108004;28;19950;-55
2021/05/06 11:54:12;;;;;;;4.18;1.00;;;13.50;96.10;;;;;;5108312;28;20050;-56
2021/05/06 11:56:40;;;;;;;4.78;1.42;;;13.50;96.00;;;;;;5109047;28;20099;-56
2021/05/06 11:59:07;;;;;;;5.13;1.27;;;13.30;95.40;;;;;;5110674;28;20359;-53
2021/05/06 12:01:33;;;;;;;3.50;1.17;;;13.60;96.20;;;;;;5107835;28;20069;-53
2021/05/06 12:03:58;;;;;;;2.92;1.13;;;13.80;97.70;;;;;;5108796;28;20019;-55
2021/05/06 12:06:34;;;;;;;3.67;1.35;;;14.00;97.40;;;;;;5101603;28;20015;-57
2021/05/06 12:09:05;;;;;;;5.70;1.17;;;14.20;95.30;;;;;;5098517;28;20042;-57
2021/05/06 12:11:35;;;;;;;4.13;0.82;;;14.20;95.20;;;;;;5107810;28;20509;-54
2021/05/06 12:14:01;;;;;;;3.10;1.23;;;14.00;95.20;;;;;;5101524;28;20024;-55
2021/05/06 12:16:27;;;;;;;2.50;1.00;;;14.20;95.30;;;;;;5103518;28;20262;-53
2021/05/06 12:19:02;;;;;;;5.63;1.23;;;14.20;94.10;;;;;;5088842;28;20475;-53
2021/05/06 12:21:40;;;;;;;4.45;1.10;;;14.30;94.00;;;;;;5107474;28;20035;-56
2021/05/06 12:24:07;;;;;;;4.63;1.08;;;14.30;94.40;;;;;;5103730;28;20065;-54
2021/05/06 12:26:34;;;;;;;3.25;1.70;;;13.60;94.90;;;;;;5103326;28;20027;-55
2021/05/06 12:29:00;;;;;;;2.92;1.08;;;13.90;94.60;;;;;;5095191;28;20035;-54
2021/05/06 12:31:26;;;;;;;4.47;1.55;;;14.00;94.60;;;;;;5109009;28;20077;-54
2021/05/06 12:33:51;;;;;;;2.20;1.17;;;14.10;94.70;;;;;;5105758;28;20046;-55
2021/05/06 12:36:19;;;;;;;1.58;0.85;;;14.10;95.10;;;;;;5102909;28;20070;-53
2021/05/06 12:38:47;;;;;;;4.95;1.17;;;14.20;94.20;;;;;;5109312;28;20370;-52
2021/05/06 12:41:13;;;;;;;2.97;1.10;;;14.00;94.20;;;;;;5106354;28;20015;-52
2021/05/06 12:43:50;;;;;;;3.05;1.30;;;14.00;95.10;;;;;;5108202;28;20020;-56
2021/05/06 12:46:25;;;;;;;4.72;1.40;;;13.90;94.00;;;;;;5105656;28;20028;-53
2021/05/06 12:48:55;;;;;;;2.10;1.05;;;14.00;94.00;;;;;;5106829;28;20368;-55
2021/05/06 12:51:29;;;;;;;4.85;1.10;;;13.90;95.00;;;;;;5104422;28;20106;-57
2021/05/06 12:54:00;;;;;;;43.45;3.53;;;13.80;94.80;;;;;;5109421;28;20016;-56
2021/05/06 12:56:32;;;;;;;3.80;0.90;;;14.00;96.80;;;;;;5108194;28;20020;-56
2021/05/06 12:59:17;;;;;;;7.30;0.88;;;14.10;92.80;;;;;;5109356;28;20028;-57
2021/05/06 13:01:43;;;;;;;4.50;0.85;;;14.20;93.40;;;;;;5108343;28;20035;-56
2021/05/06 13:04:08;;;;;;;4.13;1.00;;;14.30;93.10;;;;;;5109183;28;20386;-53
2021/05/06 13:06:35;;;;;;;4.10;1.08;;;14.30;93.10;;;;;;5108265;28;20031;-55
2021/05/06 13:09:11;;;;;;;4.40;1.15;;;14.30;92.40;;;;;;5105828;27;20568;-54
2021/05/06 13:11:37;;;;;;;5.78;1.48;;;14.20;93.40;;;;;;5106982;27;20023;-53
2021/05/06 13:14:04;;;;;;;2.05;1.33;;;14.00;92.70;;;;;;5104761;27;20035;-54
2021/05/06 13:16:42;;;;;;;6.95;1.40;;;13.80;94.10;;;;;;5098024;27;20036;-52
2021/05/06 13:19:14;;;;;;;3.72;1.17;;;13.90;94.60;;;;;;5107754;27;20030;-55
2021/05/06 13:21:50;;;;;;;7.18;1.33;;;13.90;93.70;;;;;;5104400;28;20024;-55
2021/05/06 13:24:16;;;;;;;12.52;1.55;;;13.90;96.20;;;;;;5106906;27;20020;-54
2021/05/06 13:26:43;;;;;;;6.47;1.35;;;13.90;94.90;;;;;;5108419;27;20088;-56
2021/05/06 13:29:15;;;;;;;4.15;1.40;;;13.90;95.10;;;;;;5103489;27;20675;-51
2021/05/06 13:31:43;;;;;;;5.90;2.55;;;13.60;94.90;;;;;;5110925;27;20213;-52
2021/05/06 13:34:22;;;;;;;2.60;1.10;;;13.50;94.40;;;;;;5106703;28;20528;-55
2021/05/06 13:37:03;;;;;;;3.80;1.17;;;13.30;94.40;;;;;;5107126;27;20116;-53
2021/05/06 13:39:30;;;;;;;4.75;1.45;;;13.10;95.50;;;;;;5105818;28;20028;-55
2021/05/06 13:41:56;;;;;;;812.72;87.13;;;13.10;95.90;;;;;;5105134;27;20034;-54
2021/05/06 13:44:24;;;;;;;116.57;11.73;;;13.00;97.90;;;;;;5112786;27;20023;-52
2021/05/06 13:46:55;;;;;;;2.42;0.98;;;13.10;97.30;;;;;;5106844;28;20043;-55
2021/05/06 13:49:29;;;;;;;6.43;1.30;;;13.10;96.50;;;;;;5105403;27;20027;-56
2021/05/06 13:51:56;;;;;;;7.63;1.40;;;13.00;96.40;;;;;;5105721;27;20039;-54
2021/05/06 13:54:22;;;;;;;5.80;1.25;;;13.00;97.50;;;;;;5110387;28;20451;-54
2021/05/06 13:56:48;;;;;;;4.55;1.08;;;13.00;98.10;;;;;;5108459;27;20393;-56
2021/05/06 13:59:14;;;;;;;6.40;2.08;;;12.90;99.40;;;;;;5104740;28;20038;-55
2021/05/06 14:01:41;;;;;;;829.58;79.88;;;12.70;99.90;;;;;;5111413;28;20032;-56
2021/05/06 14:04:07;;;;;;;88.30;9.70;;;12.80;99.90;;;;;;5107942;28;20050;-53
2021/05/06 14:06:33;;;;;;;11.23;2.08;;;12.80;99.50;;;;;;5109105;28;20115;-55
2021/05/06 14:08:59;;;;;;;4.80;1.40;;;12.70;99.50;;;;;;5103765;28;20020;-56
2021/05/06 14:11:28;;;;;;;12.25;2.47;;;12.80;99.90;;;;;;5101045;28;20020;-52
2021/05/06 14:13:57;;;;;;;37.83;4.05;;;12.80;99.90;;;;;;5108875;28;20081;-55
2021/05/06 14:16:23;;;;;;;32.08;4.20;;;12.70;99.90;;;;;;5103317;28;20028;-53
2021/05/06 14:18:50;;;;;;;5.22;1.50;;;12.70;99.90;;;;;;5107471;27;20058;-54
2021/05/06 14:21:20;;;;;;;6.75;1.73;;;12.50;99.90;;;;;;5104910;28;20563;-55
2021/05/06 14:23:46;;;;;;;7.40;1.73;;;12.40;99.90;;;;;;5108251;27;20028;-53
2021/05/06 14:26:12;;;;;;;3.70;1.63;;;12.40;99.90;;;;;;5108206;27;20030;-52
2021/05/06 14:28:38;;;;;;;7.25;1.70;;;12.30;99.90;;;;;;5105469;28;20043;-52
2021/05/06 14:31:04;;;;;;;7.10;1.80;;;12.30;99.90;;;;;;5109783;27;20045;-53
2021/05/06 14:33:30;;;;;;;9.65;1.73;;;12.30;99.90;;;;;;5105902;28;20024;-57
2021/05/06 14:35:55;;;;;;;6.25;2.30;;;12.20;99.90;;;;;;5104846;28;20024;-55
2021/05/06 14:38:21;;;;;;;7.55;1.55;;;12.30;99.90;;;;;;5101385;28;20020;-56
2021/05/06 14:40:47;;;;;;;5.60;1.73;;;12.30;99.90;;;;;;5105291;27;20389;-56
2021/05/06 14:43:12;;;;;;;8.45;1.33;;;12.30;99.90;;;;;;5103258;27;20027;-53
2021/05/06 14:45:38;;;;;;;4.55;1.80;;;12.40;99.90;;;;;;5104799;28;20015;-52
2021/05/06 14:48:05;;;;;;;7.53;2.30;;;12.40;99.90;;;;;;5103667;27;20023;-57
2021/05/06 14:50:31;;;;;;;4.65;1.60;;;12.40;99.90;;;;;;5098850;27;20024;-52
2021/05/06 14:52:58;;;;;;;8.68;2.10;;;12.40;99.90;;;;;;5102651;28;20106;-52
2021/05/06 14:55:24;;;;;;;4.05;1.48;;;12.40;99.90;;;;;;5104244;27;20790;-53
2021/05/06 14:57:51;;;;;;;7.55;2.20;;;12.30;99.90;;;;;;5109503;27;20032;-52
2021/05/06 15:00:19;;;;;;;5.55;1.70;;;12.30;99.90;;;;;;5105305;28;20016;-55
2021/05/06 15:02:45;;;;;;;5.28;2.15;;;12.30;99.90;;;;;;5108179;28;20036;-56
2021/05/06 15:05:11;;;;;;;6.85;1.98;;;12.20;99.90;;;;;;5101982;27;20027;-53
2021/05/06 15:07:37;;;;;;;6.32;1.83;;;12.10;99.90;;;;;;5097113;28;20028;-55
2021/05/06 15:10:05;;;;;;;42.30;5.15;;;12.00;99.90;;;;;;5104269;28;20164;-58
2021/05/06 15:12:32;;;;;;;10.35;2.08;;;11.90;99.90;;;;;;5103858;28;20020;-55
2021/05/06 15:14:58;;;;;;;7.13;1.90;;;11.80;99.90;;;;;;5110821;27;20028;-57
2021/05/06 15:17:24;;;;;;;3.95;1.80;;;11.70;99.90;;;;;;5102884;28;20521;-56
2021/05/06 15:19:49;;;;;;;3.85;2.00;;;11.70;99.90;;;;;;5101469;28;20034;-57
2021/05/06 15:22:15;;;;;;;4.88;1.90;;;11.60;99.90;;;;;;5108985;28;20517;-56
2021/05/06 15:24:41;;;;;;;5.65;3.25;;;11.60;99.90;;;;;;5103968;27;22046;-54
2021/05/06 15:27:06;;;;;;;5.13;1.83;;;11.40;99.90;;;;;;5103473;28;20050;-56
2021/05/06 15:29:32;;;;;;;6.88;1.75;;;11.50;99.90;;;;;;5099938;28;20118;-58
2021/05/06 15:31:57;;;;;;;5.72;2.00;;;11.30;99.90;;;;;;5106516;28;20032;-55
2021/05/06 15:34:23;;;;;;;6.55;2.03;;;11.30;99.90;;;;;;5100605;28;20024;-54
2021/05/06 15:36:49;;;;;;;5.93;2.45;;;11.20;99.90;;;;;;5106968;27;20106;-57
2021/05/06 15:39:15;;;;;;;5.90;2.53;;;11.10;99.90;;;;;;5104698;28;20039;-58
2021/05/06 15:41:40;;;;;;;5.95;2.10;;;11.10;99.90;;;;;;5103262;28;20024;-53
2021/05/06 15:44:07;;;;;;;3.28;2.22;;;11.00;99.90;;;;;;5098349;28;20024;-56
2021/05/06 15:46:34;;;;;;;4.85;2.13;;;11.00;99.90;;;;;;5103192;28;20035;-52
2021/05/06 15:49:02;;;;;;;8.52;2.67;;;11.00;99.90;;;;;;5102533;28;20497;-55
2021/05/06 15:51:28;;;;;;;4.18;2.40;;;11.10;99.90;;;;;;5104591;27;20152;-56
2021/05/06 15:53:53;;;;;;;8.85;2.80;;;10.90;99.90;;;;;;5102123;28;20032;-53
2021/05/06 15:56:19;;;;;;;7.68;2.40;;;10.90;99.90;;;;;;5100621;27;20043;-56
2021/05/06 15:58:44;;;;;;;6.88;2.53;;;10.80;99.90;;;;;;5102108;28;20028;-53
2021/05/06 16:01:10;;;;;;;8.23;3.10;;;10.80;99.90;;;;;;5099772;28;20065;-55
2021/05/06 16:03:49;;;;;;;4.78;2.58;;;10.70;99.90;;;;;;5100742;28;20039;-53